Time;durP1;ratioP1;P1;durP2;ratioP2;P2;SDS_P1;SDS_P2;PMS_P1;PMS_P2;Temp;Humidity;BMP_temperature;BMP_pressure;BME280_temperature;BME280_humidity;BME280_pressure;Samples;Min_cycle;Max_cycle;Signal;HPM_P1;HPM_P2
2023/08/08 00:00:28;;;;;;;12.50;3.47;;;;;;;;;;4928988;28;99651;-71
2023/08/08 00:02:55;;;;;;;10.50;3.38;;;;;;;;;;4928014;28;98635;-72
2023/08/08 00:05:21;;;;;;;9.85;3.20;;;;;;;;;;4927518;28;99035;-71
2023/08/08 00:07:48;;;;;;;11.93;4.15;;;;;;;;;;4922406;28;99832;-72
2023/08/08 00:10:14;;;;;;;15.23;3.15;;;;;;;;;;4925938;28;100525;-72
2023/08/08 00:12:41;;;;;;;12.15;3.58;;;;;;;;;;4928450;28;100029;-71
2023/08/08 00:15:08;;;;;;;8.95;3.55;;;;;;;;;;4929491;28;99074;-71
2023/08/08 00:17:34;;;;;;;8.75;3.33;;;;;;;;;;4929891;28;99230;-72
2023/08/08 00:20:01;;;;;;;12.55;3.30;;;;;;;;;;4933978;28;99432;-71
2023/08/08 00:22:29;;;;;;;10.38;3.45;;;;;;;;;;4930130;28;100262;-71
2023/08/08 00:24:55;;;;;;;11.45;3.38;;;;;;;;;;4928539;28;99993;-72
2023/08/08 00:27:22;;;;;;;4.03;2.70;;;;;;;;;;4930324;28;99110;-72
2023/08/08 00:29:50;;;;;;;7.55;2.88;;;;;;;;;;4927031;28;101042;-71
2023/08/08 00:32:17;;;;;;;15.07;3.65;;;;;;;;;;4929465;28;98699;-72
2023/08/08 00:34:43;;;;;;;18.40;3.83;;;;;;;;;;4930509;28;99221;-71
2023/08/08 00:37:10;;;;;;;10.27;3.05;;;;;;;;;;4928435;28;100337;-71
2023/08/08 00:39:36;;;;;;;9.90;3.80;;;;;;;;;;4930851;28;98947;-71
2023/08/08 00:42:03;;;;;;;7.75;3.30;;;;;;;;;;4934076;28;100338;-70
2023/08/08 00:44:30;;;;;;;12.77;4.05;;;;;;;;;;4929616;28;98708;-70
2023/08/08 00:46:56;;;;;;;17.50;3.80;;;;;;;;;;4927840;28;100331;-71
2023/08/08 00:49:23;;;;;;;13.30;3.00;;;;;;;;;;4930352;28;99369;-71
2023/08/08 00:51:49;;;;;;;4.28;2.67;;;;;;;;;;4929781;28;99057;-71
2023/08/08 00:54:16;;;;;;;13.23;3.20;;;;;;;;;;4931212;28;99137;-71
2023/08/08 00:56:43;;;;;;;8.48;2.97;;;;;;;;;;4930204;28;99220;-70
2023/08/08 00:59:11;;;;;;;9.07;2.97;;;;;;;;;;4929024;28;100035;-70
2023/08/08 01:01:38;;;;;;;16.02;3.35;;;;;;;;;;4929128;28;99736;-72
2023/08/08 01:04:06;;;;;;;18.23;3.05;;;;;;;;;;4931512;28;101860;-71
2023/08/08 01:06:33;;;;;;;11.57;3.00;;;;;;;;;;4928413;28;99035;-71
2023/08/08 01:09:04;;;;;;;7.68;2.70;;;;;;;;;;4929970;28;99264;-71
2023/08/08 01:11:32;;;;;;;11.27;3.05;;;;;;;;;;4929956;28;99960;-71
2023/08/08 01:13:59;;;;;;;9.85;3.22;;;;;;;;;;4928441;28;102138;-71
2023/08/08 01:16:26;;;;;;;21.95;3.58;;;;;;;;;;4929751;28;98550;-71
2023/08/08 01:18:55;;;;;;;12.15;3.33;;;;;;;;;;4928234;28;99361;-72
2023/08/08 01:21:22;;;;;;;9.13;2.45;;;;;;;;;;4929106;28;100116;-71
2023/08/08 01:23:55;;;;;;;10.63;2.92;;;;;;;;;;4927570;28;103218;-71
2023/08/08 01:26:23;;;;;;;8.02;3.20;;;;;;;;;;4929629;28;100314;-72
2023/08/08 01:28:52;;;;;;;17.30;3.90;;;;;;;;;;4928217;28;101669;-71
2023/08/08 01:31:19;;;;;;;15.30;3.63;;;;;;;;;;4929719;28;98995;-72
2023/08/08 01:33:45;;;;;;;10.35;3.05;;;;;;;;;;4927631;28;99502;-70
2023/08/08 01:36:15;;;;;;;8.25;3.08;;;;;;;;;;4922939;28;101768;-71
2023/08/08 01:38:43;;;;;;;19.92;3.60;;;;;;;;;;4910579;28;98783;-71
2023/08/08 01:41:09;;;;;;;10.05;3.45;;;;;;;;;;4910320;28;101092;-71
2023/08/08 01:43:40;;;;;;;20.05;3.30;;;;;;;;;;4910781;28;99112;-71
2023/08/08 01:46:07;;;;;;;14.57;4.78;;;;;;;;;;4910249;28;99967;-71
2023/08/08 01:48:33;;;;;;;13.85;3.45;;;;;;;;;;4910625;28;100140;-72
2023/08/08 01:51:00;;;;;;;15.23;4.13;;;;;;;;;;4920742;28;98874;-73
2023/08/08 01:53:26;;;;;;;17.13;3.30;;;;;;;;;;4929162;28;98876;-71
2023/08/08 01:55:53;;;;;;;9.48;3.63;;;;;;;;;;4927408;28;99762;-71
2023/08/08 01:58:19;;;;;;;8.07;3.40;;;;;;;;;;4929328;28;98987;-72
2023/08/08 02:00:47;;;;;;;13.63;3.53;;;;;;;;;;4928402;28;101891;-71
2023/08/08 02:03:13;;;;;;;17.63;3.38;;;;;;;;;;4927651;28;100240;-71
2023/08/08 02:05:40;;;;;;;6.63;3.38;;;;;;;;;;4926648;28;100916;-71
2023/08/08 02:08:06;;;;;;;15.45;3.83;;;;;;;;;;4919364;28;99564;-71
2023/08/08 02:10:34;;;;;;;18.27;3.38;;;;;;;;;;4912600;28;99083;-71
2023/08/08 02:13:00;;;;;;;8.15;3.42;;;;;;;;;;4909907;28;99231;-71
2023/08/08 02:15:27;;;;;;;13.52;2.95;;;;;;;;;;4918177;28;101280;-71
2023/08/08 02:17:53;;;;;;;5.43;2.97;;;;;;;;;;4927400;28;99120;-71
2023/08/08 02:20:20;;;;;;;10.88;3.50;;;;;;;;;;4926654;28;101386;-72
2023/08/08 02:22:46;;;;;;;10.07;3.10;;;;;;;;;;4924548;28;101046;-71
2023/08/08 02:25:13;;;;;;;14.00;3.08;;;;;;;;;;4928703;28;99271;-71
2023/08/08 02:27:40;;;;;;;6.90;3.03;;;;;;;;;;4927221;28;100889;-71
2023/08/08 02:30:09;;;;;;;11.45;2.85;;;;;;;;;;4932119;28;98589;-71
2023/08/08 02:32:35;;;;;;;10.02;3.65;;;;;;;;;;4925962;28;100162;-71
2023/08/08 02:35:02;;;;;;;10.18;3.63;;;;;;;;;;4928287;28;99893;-70
2023/08/08 02:37:28;;;;;;;12.05;3.20;;;;;;;;;;4925029;28;101672;-70
2023/08/08 02:39:55;;;;;;;8.00;2.75;;;;;;;;;;4928070;28;99785;-73
2023/08/08 02:42:21;;;;;;;8.32;3.25;;;;;;;;;;4928988;28;99231;-71
2023/08/08 02:44:48;;;;;;;9.98;3.35;;;;;;;;;;4926705;28;98987;-72
2023/08/08 02:47:14;;;;;;;10.43;2.80;;;;;;;;;;4927011;28;100900;-71
2023/08/08 02:49:41;;;;;;;7.90;3.17;;;;;;;;;;4927351;28;99522;-71
2023/08/08 02:52:07;;;;;;;12.48;4.35;;;;;;;;;;4928127;28;100080;-72
2023/08/08 02:54:35;;;;;;;15.20;3.42;;;;;;;;;;4923234;28;101411;-72
2023/08/08 02:57:01;;;;;;;8.48;2.92;;;;;;;;;;4928620;28;98775;-72
2023/08/08 02:59:28;;;;;;;13.35;2.95;;;;;;;;;;4926020;28;100899;-72
2023/08/08 03:01:55;;;;;;;12.02;4.35;;;;;;;;;;4926182;28;100890;-71
2023/08/08 03:04:22;;;;;;;10.15;3.50;;;;;;;;;;4928329;28;98873;-71
2023/08/08 03:06:49;;;;;;;9.95;3.10;;;;;;;;;;4923319;28;99478;-71
2023/08/08 03:09:16;;;;;;;6.40;3.03;;;;;;;;;;4907886;28;100354;-71
2023/08/08 03:11:43;;;;;;;10.20;3.28;;;;;;;;;;4924300;28;101393;-71
2023/08/08 03:14:13;;;;;;;8.95;3.15;;;;;;;;;;4930267;28;98963;-71
2023/08/08 03:16:39;;;;;;;9.80;3.17;;;;;;;;;;4928579;28;99114;-71
2023/08/08 03:19:07;;;;;;;7.13;3.30;;;;;;;;;;4926598;28;99064;-72
2023/08/08 03:21:35;;;;;;;14.70;2.60;;;;;;;;;;4925544;28;101434;-72
2023/08/08 03:24:03;;;;;;;12.70;3.22;;;;;;;;;;4926294;28;100809;-72
2023/08/08 03:26:29;;;;;;;8.45;3.55;;;;;;;;;;4924448;28;99395;-71
2023/08/08 03:28:56;;;;;;;10.10;3.35;;;;;;;;;;4926771;28;101901;-72
2023/08/08 03:31:30;;;;;;;9.63;3.97;;;;;;;;;;4926496;28;100020;-72
2023/08/08 03:33:56;;;;;;;8.13;3.13;;;;;;;;;;4924741;28;101096;-72
2023/08/08 03:36:23;;;;;;;14.02;3.20;;;;;;;;;;4925623;28;100974;-73
2023/08/08 03:38:50;;;;;;;7.65;2.72;;;;;;;;;;4909111;28;98858;-72
2023/08/08 03:41:16;;;;;;;14.85;3.03;;;;;;;;;;4908086;28;99057;-71
2023/08/08 03:43:43;;;;;;;13.93;3.00;;;;;;;;;;4923999;28;99274;-71
2023/08/08 03:46:11;;;;;;;10.80;3.83;;;;;;;;;;4928054;28;98514;-71
2023/08/08 03:48:38;;;;;;;7.57;2.63;;;;;;;;;;4925697;28;100249;-73
2023/08/08 03:51:05;;;;;;;6.47;2.45;;;;;;;;;;4924961;28;102105;-71
2023/08/08 03:53:32;;;;;;;10.48;3.75;;;;;;;;;;4927476;28;99471;-72
2023/08/08 03:55:58;;;;;;;13.50;3.50;;;;;;;;;;4926435;28;100262;-72
2023/08/08 03:58:25;;;;;;;16.90;3.70;;;;;;;;;;4924497;28;100947;-72
2023/08/08 04:00:51;;;;;;;10.30;2.90;;;;;;;;;;4926037;28;102446;-72
2023/08/08 04:03:18;;;;;;;11.40;3.65;;;;;;;;;;4925749;28;100459;-72
2023/08/08 04:05:46;;;;;;;7.28;3.10;;;;;;;;;;4926921;28;98718;-71
2023/08/08 04:08:15;;;;;;;13.25;3.42;;;;;;;;;;4922068;28;100548;-72
2023/08/08 04:10:43;;;;;;;8.20;2.70;;;;;;;;;;4908402;28;99438;-72
2023/08/08 04:13:10;;;;;;;11.38;3.83;;;;;;;;;;4908517;28;98913;-71
2023/08/08 04:15:37;;;;;;;11.40;3.88;;;;;;;;;;4923245;28;100750;-71
2023/08/08 04:18:06;;;;;;;9.23;3.67;;;;;;;;;;4927213;28;99907;-72
2023/08/08 04:20:33;;;;;;;13.93;3.97;;;;;;;;;;4929688;28;99966;-71
2023/08/08 04:22:59;;;;;;;6.72;3.05;;;;;;;;;;4926824;28;99744;-71
2023/08/08 04:25:27;;;;;;;7.25;3.45;;;;;;;;;;4926187;28;100393;-72
2023/08/08 04:27:53;;;;;;;10.38;2.97;;;;;;;;;;4927675;28;99472;-72
2023/08/08 04:30:20;;;;;;;7.63;2.63;;;;;;;;;;4925239;28;99141;-71
2023/08/08 04:32:46;;;;;;;7.80;2.45;;;;;;;;;;4927018;28;100536;-72
2023/08/08 04:35:13;;;;;;;13.15;3.72;;;;;;;;;;4926152;28;99306;-72
2023/08/08 04:37:39;;;;;;;6.80;2.60;;;;;;;;;;4926751;28;100186;-72
2023/08/08 04:40:08;;;;;;;9.13;3.40;;;;;;;;;;4930517;28;100186;-72
2023/08/08 04:42:34;;;;;;;14.93;2.72;;;;;;;;;;4927052;28;99255;-72
2023/08/08 04:45:01;;;;;;;9.27;2.97;;;;;;;;;;4926619;28;99662;-72
2023/08/08 04:47:27;;;;;;;4.82;2.92;;;;;;;;;;4924321;28;99884;-73
2023/08/08 04:49:54;;;;;;;6.43;2.45;;;;;;;;;;4927027;28;99239;-72
2023/08/08 04:52:20;;;;;;;6.05;2.67;;;;;;;;;;4925962;28;100269;-72
2023/08/08 04:54:47;;;;;;;6.95;2.88;;;;;;;;;;4927026;28;100151;-73
2023/08/08 04:57:13;;;;;;;16.23;3.45;;;;;;;;;;4926327;28;100199;-71
2023/08/08 04:59:40;;;;;;;8.32;2.40;;;;;;;;;;4929001;28;98718;-72
2023/08/08 05:02:06;;;;;;;11.88;2.95;;;;;;;;;;4931084;28;99458;-72
2023/08/08 05:04:32;;;;;;;4.88;2.38;;;;;;;;;;4927533;28;99681;-72
2023/08/08 05:06:59;;;;;;;10.25;2.35;;;;;;;;;;4930379;28;100423;-72
2023/08/08 05:09:28;;;;;;;5.47;2.65;;;;;;;;;;4929457;28;99975;-72
2023/08/08 05:11:54;;;;;;;9.63;4.07;;;;;;;;;;4929605;28;99142;-72
2023/08/08 05:14:21;;;;;;;8.90;2.67;;;;;;;;;;4930368;28;100060;-73
2023/08/08 05:16:47;;;;;;;11.32;2.40;;;;;;;;;;4928829;28;100853;-72
2023/08/08 05:19:14;;;;;;;5.22;2.80;;;;;;;;;;4925334;28;99975;-72
2023/08/08 05:21:40;;;;;;;2.92;2.03;;;;;;;;;;4930419;28;99662;-73
2023/08/08 05:24:07;;;;;;;4.38;1.92;;;;;;;;;;4933226;28;101654;-73
2023/08/08 05:26:33;;;;;;;5.20;1.88;;;;;;;;;;4928972;28;100380;-74
2023/08/08 05:29:00;;;;;;;2.65;1.30;;;;;;;;;;4929558;28;99293;-73
2023/08/08 05:31:26;;;;;;;8.15;1.90;;;;;;;;;;4929138;28;100828;-73
2023/08/08 05:33:53;;;;;;;7.07;1.38;;;;;;;;;;4927632;28;100606;-73
2023/08/08 05:36:19;;;;;;;4.60;1.52;;;;;;;;;;4927632;28;99921;-72
2023/08/08 05:38:46;;;;;;;6.78;1.70;;;;;;;;;;4929892;28;98998;-73
2023/08/08 05:41:12;;;;;;;1.38;1.27;;;;;;;;;;4928764;28;99317;-72
2023/08/08 05:43:38;;;;;;;3.60;1.80;;;;;;;;;;4929789;28;99067;-73
2023/08/08 05:46:05;;;;;;;4.15;1.45;;;;;;;;;;4933536;28;99836;-72
2023/08/08 05:48:31;;;;;;;8.25;1.25;;;;;;;;;;4928246;28;98904;-72
2023/08/08 05:50:59;;;;;;;3.55;1.60;;;;;;;;;;4925890;28;98993;-71
2023/08/08 05:53:26;;;;;;;7.35;1.70;;;;;;;;;;4927646;28;101120;-72
2023/08/08 05:55:52;;;;;;;2.50;1.52;;;;;;;;;;4929374;28;99962;-72
2023/08/08 05:58:19;;;;;;;2.55;1.60;;;;;;;;;;4928035;28;100030;-72
2023/08/08 06:00:45;;;;;;;4.88;1.50;;;;;;;;;;4928930;28;99264;-72
2023/08/08 06:03:11;;;;;;;1.60;1.20;;;;;;;;;;4928036;28;98987;-71
2023/08/08 06:05:38;;;;;;;2.40;1.35;;;;;;;;;;4927849;28;99084;-72
2023/08/08 06:08:07;;;;;;;6.72;2.17;;;;;;;;;;4931199;28;99309;-71
2023/08/08 06:10:34;;;;;;;5.47;1.27;;;;;;;;;;4928491;28;99860;-72
2023/08/08 06:13:01;;;;;;;2.35;1.10;;;;;;;;;;4929646;28;99530;-72
2023/08/08 06:15:27;;;;;;;8.88;1.58;;;;;;;;;;4928243;28;99353;-71
2023/08/08 06:17:54;;;;;;;3.72;1.48;;;;;;;;;;4928889;28;99411;-72
2023/08/08 06:20:21;;;;;;;3.75;1.73;;;;;;;;;;4927439;28;99225;-71
2023/08/08 06:22:48;;;;;;;7.32;1.80;;;;;;;;;;4928029;28;98909;-73
2023/08/08 06:25:15;;;;;;;4.05;1.30;;;;;;;;;;4928767;28;98466;-72
2023/08/08 06:27:42;;;;;;;2.13;1.90;;;;;;;;;;4918890;28;99039;-71
2023/08/08 06:30:08;;;;;;;5.63;1.40;;;;;;;;;;4926359;28;98523;-73
2023/08/08 06:32:35;;;;;;;2.47;1.20;;;;;;;;;;4922080;28;100654;-72
2023/08/08 06:35:01;;;;;;;1.00;0.95;;;;;;;;;;4922116;28;100007;-72
2023/08/08 06:37:28;;;;;;;2.25;1.02;;;;;;;;;;4918742;28;99014;-73
2023/08/08 06:39:54;;;;;;;7.13;1.42;;;;;;;;;;4917630;28;99724;-71
2023/08/08 06:42:20;;;;;;;2.53;1.23;;;;;;;;;;4917969;28;99315;-72
2023/08/08 06:44:55;;;;;;;7.50;1.60;;;;;;;;;;4916033;28;102650;-72
2023/08/08 06:47:21;;;;;;;1.40;1.27;;;;;;;;;;4920555;28;99427;-72
2023/08/08 06:49:48;;;;;;;1.80;1.23;;;;;;;;;;4923372;28;100071;-72
2023/08/08 06:52:14;;;;;;;4.90;1.77;;;;;;;;;;4920929;28;99804;-73
2023/08/08 06:54:40;;;;;;;5.65;1.38;;;;;;;;;;4919078;28;99674;-72
2023/08/08 06:57:07;;;;;;;1.85;0.90;;;;;;;;;;4920118;28;100148;-72
2023/08/08 06:59:33;;;;;;;2.67;1.80;;;;;;;;;;4915597;28;98633;-73
2023/08/08 07:02:00;;;;;;;5.82;1.25;;;;;;;;;;4921771;28;99412;-73
2023/08/08 07:04:27;;;;;;;2.50;0.88;;;;;;;;;;4915270;28;100125;-73
2023/08/08 07:06:53;;;;;;;4.93;1.60;;;;;;;;;;4918565;28;100964;-72
2023/08/08 07:09:21;;;;;;;5.68;1.48;;;;;;;;;;4918781;28;100142;-74
2023/08/08 07:11:47;;;;;;;5.38;1.38;;;;;;;;;;4921125;28;100650;-73
2023/08/08 07:14:14;;;;;;;5.07;1.10;;;;;;;;;;4921427;28;100288;-74
2023/08/08 07:16:40;;;;;;;2.45;1.00;;;;;;;;;;4918568;28;100190;-74
2023/08/08 07:19:07;;;;;;;3.80;1.08;;;;;;;;;;4919469;28;99230;-75
2023/08/08 07:21:33;;;;;;;4.30;0.88;;;;;;;;;;4918920;28;100004;-74
2023/08/08 07:24:00;;;;;;;2.00;0.70;;;;;;;;;;4926183;28;100081;-73
2023/08/08 07:26:26;;;;;;;2.72;1.10;;;;;;;;;;4925465;28;99429;-75
2023/08/08 07:28:52;;;;;;;1.05;0.60;;;;;;;;;;4927999;28;100267;-73
2023/08/08 07:31:19;;;;;;;2.55;0.80;;;;;;;;;;4926629;28;99978;-74
2023/08/08 07:33:45;;;;;;;1.85;0.60;;;;;;;;;;4927677;28;100122;-74
2023/08/08 07:36:12;;;;;;;3.03;0.80;;;;;;;;;;4927626;28;100075;-73
2023/08/08 07:38:38;;;;;;;2.85;0.90;;;;;;;;;;4928008;28;100552;-74
2023/08/08 07:41:05;;;;;;;3.05;0.98;;;;;;;;;;4925689;28;100824;-73
2023/08/08 07:43:31;;;;;;;4.18;1.20;;;;;;;;;;4928160;28;99010;-73
2023/08/08 07:45:58;;;;;;;1.02;0.73;;;;;;;;;;4927258;28;100444;-74
2023/08/08 07:48:24;;;;;;;4.70;0.90;;;;;;;;;;4926893;28;99987;-74
2023/08/08 07:50:51;;;;;;;2.65;0.90;;;;;;;;;;4926169;28;99584;-74
2023/08/08 07:53:17;;;;;;;1.73;0.90;;;;;;;;;;4926028;28;99269;-75
2023/08/08 07:55:44;;;;;;;0.55;0.45;;;;;;;;;;4930511;28;99319;-74
2023/08/08 07:58:10;;;;;;;1.73;0.73;;;;;;;;;;4927556;28;100453;-74
2023/08/08 08:00:38;;;;;;;1.38;1.05;;;;;;;;;;4926573;28;99263;-73
2023/08/08 08:03:04;;;;;;;1.25;0.68;;;;;;;;;;4927111;28;98965;-74
2023/08/08 08:05:32;;;;;;;1.75;0.80;;;;;;;;;;4927080;28;99418;-73
2023/08/08 08:07:58;;;;;;;2.13;0.88;;;;;;;;;;4925434;28;100036;-74
2023/08/08 08:10:25;;;;;;;1.95;0.88;;;;;;;;;;4927507;28;99002;-73
2023/08/08 08:12:57;;;;;;;1.35;0.85;;;;;;;;;;4925900;28;99460;-73
2023/08/08 08:15:25;;;;;;;2.08;0.73;;;;;;;;;;4926395;28;99914;-74
2023/08/08 08:17:51;;;;;;;1.20;1.10;;;;;;;;;;4930999;28;98809;-74
2023/08/08 08:20:19;;;;;;;0.98;0.60;;;;;;;;;;4923679;28;99428;-74
2023/08/08 08:22:45;;;;;;;1.73;0.60;;;;;;;;;;4923926;28;99887;-74
2023/08/08 08:25:12;;;;;;;1.23;0.70;;;;;;;;;;4922458;28;101213;-73
2023/08/08 08:27:39;;;;;;;3.20;1.00;;;;;;;;;;4919945;28;99008;-74
2023/08/08 08:30:06;;;;;;;2.35;0.68;;;;;;;;;;4917733;28;99384;-72
2023/08/08 08:32:34;;;;;;;4.45;1.08;;;;;;;;;;4914894;28;100352;-72
2023/08/08 08:35:06;;;;;;;2.45;0.80;;;;;;;;;;4918525;28;99964;-73
2023/08/08 08:37:33;;;;;;;1.73;0.55;;;;;;;;;;4921513;28;100713;-73
2023/08/08 08:40:00;;;;;;;1.40;0.40;;;;;;;;;;4920937;28;99371;-72
2023/08/08 08:42:27;;;;;;;4.18;0.60;;;;;;;;;;4926256;28;99249;-74
2023/08/08 08:44:56;;;;;;;0.45;0.40;;;;;;;;;;4930321;28;100393;-73
2023/08/08 08:47:23;;;;;;;2.38;0.65;;;;;;;;;;4913087;28;98910;-74
2023/08/08 08:49:51;;;;;;;3.88;0.90;;;;;;;;;;4929626;28;99887;-73
2023/08/08 08:52:18;;;;;;;1.83;0.63;;;;;;;;;;4920698;28;100787;-74
2023/08/08 08:54:44;;;;;;;1.38;0.80;;;;;;;;;;4911091;28;99021;-72
2023/08/08 08:57:11;;;;;;;1.88;0.70;;;;;;;;;;4910557;28;100039;-73
2023/08/08 08:59:38;;;;;;;0.95;0.63;;;;;;;;;;4921082;28;99405;-73
2023/08/08 09:02:04;;;;;;;2.22;0.60;;;;;;;;;;4930186;28;99977;-74
2023/08/08 09:04:31;;;;;;;0.40;0.40;;;;;;;;;;4929262;28;99179;-74
2023/08/08 09:06:58;;;;;;;1.90;0.60;;;;;;;;;;4929861;28;99006;-74
2023/08/08 09:09:24;;;;;;;3.45;1.00;;;;;;;;;;4929556;28;100003;-72
2023/08/08 09:11:53;;;;;;;3.40;0.50;;;;;;;;;;4929917;28;100424;-72
2023/08/08 09:14:21;;;;;;;3.47;0.82;;;;;;;;;;4930152;28;99016;-71
2023/08/08 09:16:47;;;;;;;2.85;0.70;;;;;;;;;;4930180;28;99197;-72
2023/08/08 09:19:15;;;;;;;4.15;0.85;;;;;;;;;;4929091;28;100556;-72
2023/08/08 09:21:41;;;;;;;0.95;0.85;;;;;;;;;;4933233;28;100227;-73
2023/08/08 09:24:08;;;;;;;1.70;0.50;;;;;;;;;;4929268;28;99350;-72
2023/08/08 09:26:34;;;;;;;3.03;0.75;;;;;;;;;;4929176;28;100036;-73
2023/08/08 09:29:01;;;;;;;0.35;0.35;;;;;;;;;;4928750;28;98606;-72
2023/08/08 09:31:28;;;;;;;0.88;0.43;;;;;;;;;;4928703;28;100463;-73
2023/08/08 09:33:56;;;;;;;1.02;0.43;;;;;;;;;;4929268;28;99246;-73
2023/08/08 09:36:23;;;;;;;3.60;0.82;;;;;;;;;;4929323;28;99802;-73
2023/08/08 09:38:50;;;;;;;0.77;0.60;;;;;;;;;;4929140;28;100171;-72
2023/08/08 09:41:16;;;;;;;2.20;0.55;;;;;;;;;;4929928;28;100014;-72
2023/08/08 09:43:45;;;;;;;0.88;0.65;;;;;;;;;;4932955;28;99168;-73
2023/08/08 09:46:12;;;;;;;3.20;0.70;;;;;;;;;;4916559;28;100111;-72
2023/08/08 09:48:40;;;;;;;6.07;1.42;;;;;;;;;;4919607;28;100125;-74
2023/08/08 09:51:07;;;;;;;0.63;0.52;;;;;;;;;;4929550;28;99444;-73
2023/08/08 09:53:34;;;;;;;3.25;0.95;;;;;;;;;;4918131;28;100538;-73
2023/08/08 09:56:03;;;;;;;2.33;0.63;;;;;;;;;;4922605;28;100174;-74
2023/08/08 09:58:30;;;;;;;2.20;0.65;;;;;;;;;;4919521;28;101335;-75
2023/08/08 10:00:56;;;;;;;1.50;0.57;;;;;;;;;;4920874;28;99170;-75
2023/08/08 10:03:23;;;;;;;1.55;0.70;;;;;;;;;;4919108;28;100294;-74
2023/08/08 10:05:49;;;;;;;1.83;0.50;;;;;;;;;;4921464;28;99209;-74
2023/08/08 10:08:16;;;;;;;1.55;0.40;;;;;;;;;;4917344;28;100377;-73
2023/08/08 10:10:44;;;;;;;0.32;0.32;;;;;;;;;;4922492;28;100494;-73
2023/08/08 10:13:18;;;;;;;1.27;0.60;;;;;;;;;;4928410;28;100976;-74
2023/08/08 10:15:45;;;;;;;0.60;0.60;;;;;;;;;;4921558;28;101743;-74
2023/08/08 10:18:12;;;;;;;4.40;0.60;;;;;;;;;;4926872;28;100199;-74
2023/08/08 10:20:39;;;;;;;1.13;0.70;;;;;;;;;;4926638;28;99006;-74
2023/08/08 10:23:07;;;;;;;1.55;0.50;;;;;;;;;;4925834;28;99754;-74
2023/08/08 10:25:33;;;;;;;0.60;0.40;;;;;;;;;;4926648;28;101777;-74
2023/08/08 10:28:04;;;;;;;0.50;0.50;;;;;;;;;;4923507;28;101315;-74
2023/08/08 10:30:56;;;;;;;4.68;0.80;;;;;;;;;;4923355;28;100365;-74
2023/08/08 10:33:23;;;;;;;1.02;0.60;;;;;;;;;;4920114;28;100101;-74
2023/08/08 10:35:50;;;;;;;0.95;0.70;;;;;;;;;;4919021;28;99703;-74
2023/08/08 10:38:17;;;;;;;2.17;0.90;;;;;;;;;;4923856;28;100459;-75
2023/08/08 10:40:43;;;;;;;2.13;0.70;;;;;;;;;;4923991;28;98944;-75
2023/08/08 10:43:12;;;;;;;1.35;0.63;;;;;;;;;;4915951;28;99231;-74
2023/08/08 10:45:42;;;;;;;0.65;0.60;;;;;;;;;;4917772;28;99682;-74
2023/08/08 10:48:09;;;;;;;4.47;1.20;;;;;;;;;;4920998;28;99341;-74
2023/08/08 10:50:42;;;;;;;3.75;0.85;;;;;;;;;;4917742;28;100619;-73
2023/08/08 10:53:12;;;;;;;1.38;0.60;;;;;;;;;;4917281;28;101022;-72
2023/08/08 10:55:39;;;;;;;1.23;0.70;;;;;;;;;;4925402;28;99203;-72
2023/08/08 10:58:09;;;;;;;2.80;0.80;;;;;;;;;;4927361;28;99294;-72
2023/08/08 11:00:36;;;;;;;2.78;0.60;;;;;;;;;;4913975;28;100174;-74
2023/08/08 11:03:06;;;;;;;2.30;0.73;;;;;;;;;;4919141;28;100453;-72
2023/08/08 11:05:33;;;;;;;2.70;0.68;;;;;;;;;;4921551;28;99411;-72
2023/08/08 11:08:00;;;;;;;1.20;0.63;;;;;;;;;;4920402;28;99884;-72
2023/08/08 11:10:33;;;;;;;3.90;0.90;;;;;;;;;;4922962;28;99965;-72
2023/08/08 11:13:01;;;;;;;0.60;0.60;;;;;;;;;;4917966;28;99477;-73
2023/08/08 11:15:27;;;;;;;1.00;0.68;;;;;;;;;;4925084;28;100886;-73
2023/08/08 11:17:57;;;;;;;2.15;1.08;;;;;;;;;;4914786;28;98653;-71
2023/08/08 11:20:24;;;;;;;0.93;0.73;;;;;;;;;;4916090;28;100760;-72
2023/08/08 11:22:54;;;;;;;1.05;0.75;;;;;;;;;;4917926;28;99160;-73
2023/08/08 11:25:30;;;;;;;0.50;0.50;;;;;;;;;;4918611;28;101298;-72
2023/08/08 11:27:58;;;;;;;1.02;0.60;;;;;;;;;;4927597;28;100302;-73
2023/08/08 11:30:28;;;;;;;0.77;0.50;;;;;;;;;;4922922;28;99682;-72
2023/08/08 11:32:54;;;;;;;2.58;0.50;;;;;;;;;;4924552;28;100481;-73
2023/08/08 11:35:24;;;;;;;0.50;0.50;;;;;;;;;;4922102;28;100718;-73
2023/08/08 11:37:51;;;;;;;0.68;0.50;;;;;;;;;;4917715;28;101019;-71
2023/08/08 11:40:19;;;;;;;0.82;0.82;;;;;;;;;;4915100;28;99991;-72
2023/08/08 11:42:46;;;;;;;0.73;0.70;;;;;;;;;;4920944;28;99057;-72
2023/08/08 11:45:13;;;;;;;0.80;0.50;;;;;;;;;;4914940;28;100066;-72
2023/08/08 11:47:40;;;;;;;1.05;0.57;;;;;;;;;;4920853;28;100155;-72
2023/08/08 11:50:07;;;;;;;5.20;0.80;;;;;;;;;;4920331;28;100335;-72
2023/08/08 11:52:42;;;;;;;2.47;0.70;;;;;;;;;;4918084;28;100418;-73
2023/08/08 11:55:09;;;;;;;0.60;0.60;;;;;;;;;;4925299;28;99602;-72
2023/08/08 11:57:39;;;;;;;0.45;0.45;;;;;;;;;;4919899;28;100159;-73
2023/08/08 12:00:07;;;;;;;2.47;0.70;;;;;;;;;;4926685;28;99012;-73
2023/08/08 12:02:39;;;;;;;0.88;0.60;;;;;;;;;;4926314;28;99501;-74
2023/08/08 12:05:09;;;;;;;1.20;0.70;;;;;;;;;;4927594;28;100182;-73
2023/08/08 12:07:36;;;;;;;1.40;0.63;;;;;;;;;;4926267;28;100333;-73
2023/08/08 12:10:04;;;;;;;2.10;0.55;;;;;;;;;;4928570;28;99269;-72
2023/08/08 12:12:35;;;;;;;1.60;0.65;;;;;;;;;;4919107;28;99478;-73
2023/08/08 12:15:11;;;;;;;3.65;0.77;;;;;;;;;;4930087;28;99862;-72
2023/08/08 12:17:42;;;;;;;0.50;0.50;;;;;;;;;;4934278;28;99123;-74
2023/08/08 12:20:09;;;;;;;0.55;0.55;;;;;;;;;;4930768;28;98958;-73
2023/08/08 12:22:36;;;;;;;2.63;0.60;;;;;;;;;;4930784;28;99350;-73
2023/08/08 12:25:04;;;;;;;0.52;0.45;;;;;;;;;;4930578;28;99357;-73
2023/08/08 12:27:30;;;;;;;2.00;0.70;;;;;;;;;;4929322;28;99648;-73
2023/08/08 12:29:57;;;;;;;0.60;0.52;;;;;;;;;;4916381;28;99799;-72
2023/08/08 12:32:26;;;;;;;3.95;0.88;;;;;;;;;;4910644;28;99300;-73
2023/08/08 12:34:53;;;;;;;1.17;0.75;;;;;;;;;;4922741;28;100029;-72
2023/08/08 12:37:19;;;;;;;1.38;0.90;;;;;;;;;;4929948;28;99290;-72
2023/08/08 12:39:46;;;;;;;0.80;0.80;;;;;;;;;;4933927;28;100367;-72
2023/08/08 12:42:12;;;;;;;1.08;0.73;;;;;;;;;;4929887;28;99893;-71
2023/08/08 12:44:39;;;;;;;3.65;0.98;;;;;;;;;;4931520;28;99573;-72
2023/08/08 12:47:05;;;;;;;2.33;0.77;;;;;;;;;;4930612;28;99966;-72
2023/08/08 12:49:32;;;;;;;3.00;0.80;;;;;;;;;;4929727;28;100117;-72
2023/08/08 12:51:58;;;;;;;2.80;0.70;;;;;;;;;;4929293;28;100010;-73
2023/08/08 12:54:25;;;;;;;1.98;1.17;;;;;;;;;;4929385;28;100155;-74
2023/08/08 12:56:52;;;;;;;1.63;0.73;;;;;;;;;;4929692;28;100001;-73
2023/08/08 12:59:18;;;;;;;1.33;0.70;;;;;;;;;;4933049;28;99218;-72
2023/08/08 13:01:45;;;;;;;1.88;0.88;;;;;;;;;;4927159;28;100617;-74
2023/08/08 13:04:11;;;;;;;2.67;0.68;;;;;;;;;;4921167;28;100646;-73
2023/08/08 13:06:46;;;;;;;2.78;0.70;;;;;;;;;;4929791;28;99961;-73
2023/08/08 13:09:13;;;;;;;1.08;0.47;;;;;;;;;;4929930;28;100546;-73
2023/08/08 13:11:40;;;;;;;3.13;1.00;;;;;;;;;;4929605;28;100302;-73
2023/08/08 13:14:06;;;;;;;1.83;1.35;;;;;;;;;;4930035;28;99162;-73
2023/08/08 13:16:32;;;;;;;1.05;0.65;;;;;;;;;;4928590;28;99836;-73
2023/08/08 13:18:59;;;;;;;0.75;0.70;;;;;;;;;;4930098;28;99407;-72
2023/08/08 13:21:26;;;;;;;2.35;0.77;;;;;;;;;;4932131;28;99583;-72
2023/08/08 13:23:53;;;;;;;0.98;0.68;;;;;;;;;;4929036;28;99239;-72
2023/08/08 13:26:19;;;;;;;0.63;0.52;;;;;;;;;;4929443;28;98989;-72
2023/08/08 13:28:46;;;;;;;0.75;0.47;;;;;;;;;;4929351;28;99036;-72
2023/08/08 13:31:12;;;;;;;3.60;0.80;;;;;;;;;;4928658;28;99233;-72
2023/08/08 13:33:39;;;;;;;2.05;0.68;;;;;;;;;;4930140;28;99147;-72
2023/08/08 13:36:05;;;;;;;2.00;0.73;;;;;;;;;;4929822;28;98386;-72
2023/08/08 13:38:32;;;;;;;2.38;1.20;;;;;;;;;;4928640;28;99395;-71
2023/08/08 13:41:00;;;;;;;2.40;0.70;;;;;;;;;;4929193;28;99878;-73
2023/08/08 13:43:26;;;;;;;2.65;1.00;;;;;;;;;;4932507;28;99633;-73
2023/08/08 13:45:53;;;;;;;1.17;0.80;;;;;;;;;;4929239;28;99900;-72
2023/08/08 13:48:19;;;;;;;4.45;0.95;;;;;;;;;;4929451;28;99977;-71
2023/08/08 13:50:46;;;;;;;3.72;0.70;;;;;;;;;;4929088;28;99711;-71
2023/08/08 13:53:13;;;;;;;5.78;0.95;;;;;;;;;;4928128;28;99200;-70
2023/08/08 13:55:39;;;;;;;4.05;0.70;;;;;;;;;;4929417;28;99849;-71
2023/08/08 13:58:07;;;;;;;1.02;0.63;;;;;;;;;;4929879;28;98812;-72
2023/08/08 14:00:34;;;;;;;1.58;0.57;;;;;;;;;;4928452;28;100061;-73
2023/08/08 14:03:00;;;;;;;3.55;0.70;;;;;;;;;;4929247;28;99869;-73
2023/08/08 14:05:28;;;;;;;2.33;0.80;;;;;;;;;;4931097;28;100163;-72
2023/08/08 14:07:55;;;;;;;3.28;1.25;;;;;;;;;;4928648;28;100972;-73
2023/08/08 14:10:21;;;;;;;0.60;0.60;;;;;;;;;;4928838;28;100715;-72
2023/08/08 14:12:47;;;;;;;2.35;0.75;;;;;;;;;;4928654;28;99930;-73
2023/08/08 14:15:14;;;;;;;2.65;0.88;;;;;;;;;;4929106;28;99066;-72
2023/08/08 14:17:40;;;;;;;1.45;0.80;;;;;;;;;;4929408;28;99358;-72
2023/08/08 14:20:07;;;;;;;1.55;0.73;;;;;;;;;;4928813;28;99962;-71
2023/08/08 14:22:34;;;;;;;2.22;0.60;;;;;;;;;;4929376;28;100112;-72
2023/08/08 14:25:01;;;;;;;1.88;0.75;;;;;;;;;;4928811;28;100141;-72
2023/08/08 14:27:27;;;;;;;4.95;0.75;;;;;;;;;;4931130;28;98951;-72
2023/08/08 14:29:53;;;;;;;0.63;0.63;;;;;;;;;;4927706;28;99936;-72
2023/08/08 14:32:20;;;;;;;1.52;0.70;;;;;;;;;;4921313;28;100114;-72
2023/08/08 14:34:46;;;;;;;1.10;0.73;;;;;;;;;;4923017;28;100178;-72